createdAt,value
2019-05-29T00:00:49.946Z,62.20
2019-05-29T00:05:52.668Z,62.20
2019-05-29T00:10:55.413Z,62.50
2019-05-29T00:15:58.155Z,62.10
2019-05-29T00:21:00.888Z,63.00
2019-05-29T00:26:03.605Z,64.20
2019-05-29T00:31:06.284Z,62.40
2019-05-29T00:36:10.265Z,62.90
2019-05-29T00:41:13.145Z,63.50
2019-05-29T00:46:15.871Z,63.20
2019-05-29T00:51:18.603Z,63.50
2019-05-29T00:56:21.339Z,62.20
2019-05-29T01:01:24.084Z,62.80
2019-05-29T01:06:26.801Z,62.90
2019-05-29T01:11:29.450Z,63.10
2019-05-29T01:16:32.108Z,63.30
2019-05-29T01:21:34.842Z,63.70
2019-05-29T01:26:37.497Z,62.40
2019-05-29T01:31:40.445Z,62.50
2019-05-29T01:36:43.243Z,62.80
2019-05-29T01:41:45.917Z,62.30
2019-05-29T01:46:48.642Z,62.50
2019-05-29T01:51:51.382Z,62.50
2019-05-29T01:56:54.037Z,63.20
2019-05-29T02:01:56.714Z,63.00
2019-05-29T02:06:59.446Z,63.20
2019-05-29T02:12:02.171Z,62.50
2019-05-29T02:17:05.213Z,62.60
2019-05-29T02:22:07.868Z,63.10
2019-05-29T02:27:10.534Z,62.90
2019-05-29T02:32:13.284Z,63.20
2019-05-29T02:37:15.949Z,63.00
2019-05-29T02:42:18.763Z,62.70
2019-05-29T02:47:21.706Z,63.10
2019-05-29T02:52:26.144Z,63.00
2019-05-29T02:57:29.212Z,62.80
2019-05-29T03:02:32.326Z,62.50
2019-05-29T03:07:35.600Z,62.50
2019-05-29T03:12:38.921Z,63.40
2019-05-29T03:17:41.605Z,63.40
2019-05-29T03:22:44.262Z,63.10
2019-05-29T03:27:46.917Z,63.20
2019-05-29T03:32:49.650Z,62.50
2019-05-29T03:37:52.390Z,63.30
2019-05-29T03:42:55.055Z,63.00
2019-05-29T03:47:57.778Z,63.10
2019-05-29T03:53:00.764Z,63.30
2019-05-29T03:58:03.511Z,62.80
2019-05-29T04:03:06.246Z,64.40
2019-05-29T04:08:08.905Z,64.00
2019-05-29T04:13:12.108Z,63.90
2019-05-29T04:18:19.686Z,63.60
2019-05-29T04:23:23.334Z,63.70
2019-05-29T04:28:27.928Z,64.30
2019-05-29T04:33:32.478Z,64.60
2019-05-29T04:38:37.775Z,64.20
2019-05-29T04:43:40.083Z,64.00
2019-05-29T04:48:42.812Z,64.30
2019-05-29T04:53:45.557Z,64.40
2019-05-29T04:58:48.313Z,65.00
2019-05-29T05:03:51.067Z,64.90
2019-05-29T05:08:54.141Z,64.50
2019-05-29T05:13:56.901Z,64.30
2019-05-29T05:18:59.637Z,62.90
2019-05-29T05:24:02.314Z,61.90
2019-05-29T05:29:05.042Z,62.70
2019-05-29T05:34:07.724Z,62.60
2019-05-29T05:39:10.430Z,61.40
2019-05-29T05:44:13.444Z,62.10
2019-05-29T05:49:16.623Z,61.00
2019-05-29T05:54:19.365Z,61.50
2019-05-29T05:59:22.111Z,61.20
2019-05-29T06:04:24.839Z,61.00
2019-05-29T06:09:27.497Z,60.20
2019-05-29T06:14:30.163Z,60.40
2019-05-29T06:19:32.901Z,60.60
2019-05-29T06:24:37.198Z,60.10
2019-05-29T06:29:41.238Z,59.90
2019-05-29T06:34:44.089Z,60.20
2019-05-29T06:39:46.763Z,59.40
2019-05-29T06:44:50.151Z,57.80
2019-05-29T06:49:53.181Z,57.50
2019-05-29T06:55:15.982Z,57.60
2019-05-29T07:00:34.475Z,57.80
2019-05-29T07:05:23.530Z,57.90
2019-05-29T07:10:26.457Z,58.20
2019-05-29T07:15:29.439Z,58.00
2019-05-29T07:20:32.357Z,57.00
2019-05-29T07:25:35.198Z,57.60
2019-05-29T07:30:39.175Z,56.40
2019-05-29T07:35:43.627Z,57.60
2019-05-29T07:40:49.293Z,55.40
2019-05-29T07:45:51.356Z,54.80
2019-05-29T07:51:06.348Z,56.20
2019-05-29T07:55:58.718Z,56.30
2019-05-29T08:06:16.120Z,55.10
2019-05-29T08:11:18.791Z,54.20
2019-05-29T08:16:21.529Z,53.90
2019-05-29T08:21:24.207Z,53.90
2019-05-29T08:26:26.946Z,52.30
2019-05-29T08:31:29.953Z,51.70
2019-05-29T08:36:32.760Z,52.40
2019-05-29T08:41:35.503Z,51.40
2019-05-29T08:46:38.253Z,50.10
2019-05-29T08:51:41.802Z,48.20
2019-05-29T08:56:44.544Z,49.40
2019-05-29T09:01:48.674Z,48.10
2019-05-29T09:06:53.346Z,49.40
2019-05-29T09:11:56.313Z,48.60
2019-05-29T09:16:59.004Z,46.90
2019-05-29T09:22:01.730Z,48.50
2019-05-29T09:27:04.448Z,48.50
2019-05-29T09:32:07.133Z,46.60
2019-05-29T09:37:09.937Z,48.50
2019-05-29T09:42:12.694Z,48.20
2019-05-29T09:47:16.937Z,47.30
2019-05-29T09:52:19.805Z,46.00
2019-05-29T09:57:22.531Z,44.90
2019-05-29T10:02:25.262Z,46.60
2019-05-29T10:07:27.936Z,44.90
2019-05-29T10:12:30.592Z,45.10
2019-05-29T10:17:33.246Z,44.50
2019-05-29T10:22:35.978Z,45.70
2019-05-29T10:27:38.712Z,44.10
2019-05-29T10:32:42.695Z,42.80
2019-05-29T10:37:46.638Z,43.50
2019-05-29T10:42:49.433Z,41.90
2019-05-29T10:47:52.503Z,42.40
2019-05-29T10:52:56.454Z,42.90
2019-05-29T10:57:59.133Z,42.10
2019-05-29T11:03:01.858Z,43.30
2019-05-29T11:08:04.530Z,43.50
2019-05-29T11:13:07.198Z,44.90
2019-05-29T11:18:09.921Z,45.00
2019-05-29T11:23:12.899Z,41.90
2019-05-29T11:28:15.699Z,43.40
2019-05-29T11:33:18.695Z,41.30
2019-05-29T11:38:21.366Z,41.80
2019-05-29T11:43:24.033Z,41.40
2019-05-29T11:48:26.703Z,42.80
2019-05-29T11:53:29.434Z,42.90
2019-05-29T11:58:32.381Z,43.60
2019-05-29T12:03:35.062Z,44.60
2019-05-29T12:08:37.813Z,44.90
2019-05-29T12:13:40.545Z,45.50
2019-05-29T12:18:43.211Z,45.30
2019-05-29T12:23:45.960Z,44.80
2019-05-29T12:28:48.621Z,46.80
2019-05-29T12:33:51.287Z,47.10
2019-05-29T12:38:55.219Z,44.80
2019-05-29T12:43:59.393Z,45.30
2019-05-29T12:49:02.238Z,44.90
2019-05-29T12:54:05.263Z,43.80
2019-05-29T12:59:08.121Z,43.70
2019-05-29T13:04:10.857Z,43.40
2019-05-29T13:09:13.581Z,45.60
2019-05-29T13:14:16.633Z,49.90
2019-05-29T13:19:19.287Z,48.10
2019-05-29T13:24:21.939Z,45.20
2019-05-29T13:29:24.925Z,42.80
2019-05-29T13:34:27.585Z,40.70
2019-05-29T13:39:30.246Z,39.60
2019-05-29T13:44:32.993Z,39.00
2019-05-29T13:49:36.029Z,36.40
2019-05-29T13:54:38.749Z,37.10
2019-05-29T13:59:41.475Z,35.70
2019-05-29T14:04:44.137Z,34.10
2019-05-29T14:09:47.113Z,36.10
2019-05-29T14:14:49.791Z,36.50
2019-05-29T14:19:52.522Z,33.20
2019-05-29T14:24:55.342Z,31.90
2019-05-29T14:29:58.071Z,32.20
2019-05-29T14:35:03.741Z,33.80
2019-05-29T14:40:07.766Z,30.80
2019-05-29T14:45:12.870Z,31.30
2019-05-29T14:50:15.880Z,32.00
2019-05-29T14:55:18.872Z,29.80
2019-05-29T15:00:25.415Z,30.10
2019-05-29T15:05:26.633Z,30.50
2019-05-29T15:10:29.376Z,30.30
2019-05-29T15:15:32.108Z,30.70
2019-05-29T15:20:34.778Z,30.60
2019-05-29T15:25:37.537Z,31.20
2019-05-29T15:30:40.254Z,31.70
2019-05-29T15:35:42.938Z,31.60
2019-05-29T15:40:45.613Z,31.50
2019-05-29T15:45:48.601Z,32.90
2019-05-29T15:50:51.268Z,34.30
2019-05-29T15:55:54.014Z,33.40
2019-05-29T16:00:56.686Z,33.10
2019-05-29T16:05:59.423Z,32.90
2019-05-29T16:11:02.157Z,31.20
2019-05-29T16:16:04.885Z,31.60
2019-05-29T16:21:07.610Z,33.20
2019-05-29T16:26:11.029Z,34.50
2019-05-29T16:31:14.921Z,35.80
2019-05-29T16:36:18.673Z,33.90
2019-05-29T16:41:21.992Z,34.10
2019-05-29T16:46:24.837Z,30.40
2019-05-29T16:51:27.558Z,29.30
2019-05-29T16:56:30.220Z,28.90
2019-05-29T17:01:32.970Z,27.80
2019-05-29T17:06:35.782Z,27.10
2019-05-29T17:11:38.454Z,27.00
2019-05-29T17:16:41.287Z,25.50
2019-05-29T17:21:43.957Z,25.90
2019-05-29T17:26:46.673Z,25.50
2019-05-29T17:31:49.343Z,26.30
2019-05-29T17:36:52.077Z,26.30
2019-05-29T17:41:54.816Z,27.70
2019-05-29T17:46:58.553Z,29.30
2019-05-29T17:52:01.562Z,30.90
2019-05-29T17:57:04.391Z,32.10
2019-05-29T18:02:07.707Z,33.40
2019-05-29T18:07:10.440Z,34.40
2019-05-29T18:12:13.099Z,34.40
2019-05-29T18:17:17.353Z,34.30
2019-05-29T18:22:21.515Z,34.50
2019-05-29T18:27:24.443Z,35.10
2019-05-29T18:32:28.917Z,35.60
2019-05-29T18:37:32.461Z,35.80
2019-05-29T18:42:36.023Z,36.00
2019-05-29T18:47:38.681Z,36.10
2019-05-29T18:52:41.347Z,35.70
2019-05-29T18:57:44.489Z,35.70
2019-05-29T19:02:47.155Z,36.40
2019-05-29T19:07:49.892Z,36.60
2019-05-29T19:12:52.623Z,36.50
2019-05-29T19:17:55.296Z,36.90
2019-05-29T19:22:57.945Z,37.40
2019-05-29T19:28:00.602Z,38.00
2019-05-29T19:33:03.358Z,37.80
2019-05-29T19:38:06.057Z,38.00
2019-05-29T19:43:08.730Z,38.80
2019-05-29T19:48:11.459Z,39.40
2019-05-29T19:53:14.176Z,39.80
2019-05-29T19:58:16.854Z,40.90
2019-05-29T20:03:20.169Z,40.80
2019-05-29T20:08:22.962Z,41.00
2019-05-29T20:13:25.696Z,41.00
2019-05-29T20:18:28.384Z,41.10
2019-05-29T20:23:31.055Z,41.80
2019-05-29T20:28:34.273Z,41.10
2019-05-29T20:33:37.049Z,41.30
2019-05-29T20:38:41.269Z,41.70
2019-05-29T20:43:44.425Z,42.00
2019-05-29T20:48:47.070Z,41.80
2019-05-29T20:53:49.743Z,42.60
2019-05-29T20:58:52.414Z,42.30
2019-05-29T21:03:55.086Z,42.80
2019-05-29T21:08:57.772Z,42.70
2019-05-29T21:14:00.505Z,43.00
2019-05-29T21:19:03.303Z,43.30
2019-05-29T21:24:05.975Z,43.40
2019-05-29T21:29:08.706Z,44.10
2019-05-29T21:34:11.465Z,44.00
2019-05-29T21:39:14.708Z,44.20
2019-05-29T21:44:17.387Z,44.60
2019-05-29T21:49:20.127Z,44.50
2019-05-29T21:54:22.875Z,44.60
2019-05-29T21:59:25.523Z,45.10
2019-05-29T22:04:28.458Z,45.00
2019-05-29T22:09:31.246Z,45.10
2019-05-29T22:14:33.901Z,46.30
2019-05-29T22:19:36.635Z,46.20
2019-05-29T22:24:39.311Z,46.50
2019-05-29T22:29:42.053Z,46.30
2019-05-29T22:34:44.784Z,47.00
2019-05-29T22:39:47.442Z,46.80
2019-05-29T22:44:51.511Z,47.00
2019-05-29T22:49:55.797Z,47.00
2019-05-29T22:54:59.923Z,47.40
2019-05-29T23:00:05.476Z,47.60
2019-05-29T23:05:08.550Z,48.00
2019-05-29T23:10:12.653Z,48.00
2019-05-29T23:15:15.436Z,48.30
2019-05-29T23:20:18.258Z,48.30
2019-05-29T23:25:20.977Z,48.50
2019-05-29T23:30:24.080Z,48.90
2019-05-29T23:35:27.085Z,48.90
2019-05-29T23:40:29.737Z,49.10
2019-05-29T23:45:32.454Z,49.20
2019-05-29T23:50:35.163Z,49.30
2019-05-29T23:55:37.874Z,50.00
